sensor_id;sensor_type;location;lat;lon;timestamp;P1;durP1;ratioP1;P2;durP2;ratioP2
69386;SDS011;56575;48.942;8.404;2022-08-03T00:01:17;4.20;;;2.10;;
69386;SDS011;56575;48.942;8.404;2022-08-03T00:03:43;3.15;;;2.28;;
69386;SDS011;56575;48.942;8.404;2022-08-03T00:06:09;4.70;;;2.10;;
69386;SDS011;56575;48.942;8.404;2022-08-03T00:08:34;3.37;;;1.90;;
69386;SDS011;56575;48.942;8.404;2022-08-03T00:10:59;3.40;;;2.30;;
69386;SDS011;56575;48.942;8.404;2022-08-03T00:13:25;4.70;;;2.20;;
69386;SDS011;56575;48.942;8.404;2022-08-03T00:15:51;3.17;;;2.10;;
69386;SDS011;56575;48.942;8.404;2022-08-03T00:18:17;2.83;;;2.00;;
69386;SDS011;56575;48.942;8.404;2022-08-03T00:20:43;3.08;;;2.35;;
69386;SDS011;56575;48.942;8.404;2022-08-03T00:23:10;3.78;;;2.22;;
69386;SDS011;56575;48.942;8.404;2022-08-03T00:25:35;3.43;;;2.17;;
69386;SDS011;56575;48.942;8.404;2022-08-03T00:28:02;4.43;;;2.20;;
69386;SDS011;56575;48.942;8.404;2022-08-03T00:30:31;4.05;;;2.40;;
69386;SDS011;56575;48.942;8.404;2022-08-03T00:32:57;2.78;;;2.10;;
69386;SDS011;56575;48.942;8.404;2022-08-03T00:35:23;2.75;;;2.20;;
69386;SDS011;56575;48.942;8.404;2022-08-03T00:37:50;4.97;;;2.40;;
69386;SDS011;56575;48.942;8.404;2022-08-03T00:40:19;3.50;;;2.47;;
69386;SDS011;56575;48.942;8.404;2022-08-03T00:45:34;3.03;;;2.40;;
69386;SDS011;56575;48.942;8.404;2022-08-03T00:48:01;3.45;;;2.30;;
69386;SDS011;56575;48.942;8.404;2022-08-03T00:50:29;3.10;;;2.40;;
69386;SDS011;56575;48.942;8.404;2022-08-03T00:52:57;3.65;;;2.22;;
69386;SDS011;56575;48.942;8.404;2022-08-03T00:55:24;4.22;;;2.60;;
69386;SDS011;56575;48.942;8.404;2022-08-03T00:57:50;5.40;;;2.75;;
69386;SDS011;56575;48.942;8.404;2022-08-03T01:00:18;3.42;;;2.30;;
69386;SDS011;56575;48.942;8.404;2022-08-03T01:02:48;5.87;;;2.70;;
69386;SDS011;56575;48.942;8.404;2022-08-03T01:05:15;3.83;;;2.25;;
69386;SDS011;56575;48.942;8.404;2022-08-03T01:10:38;3.58;;;2.33;;
69386;SDS011;56575;48.942;8.404;2022-08-03T01:18:18;3.25;;;2.40;;
69386;SDS011;56575;48.942;8.404;2022-08-03T01:20:47;3.30;;;2.40;;
69386;SDS011;56575;48.942;8.404;2022-08-03T01:26:11;3.72;;;2.22;;
69386;SDS011;56575;48.942;8.404;2022-08-03T01:31:52;6.90;;;2.70;;
69386;SDS011;56575;48.942;8.404;2022-08-03T01:34:25;5.00;;;2.50;;
69386;SDS011;56575;48.942;8.404;2022-08-03T01:36:55;3.33;;;2.30;;
69386;SDS011;56575;48.942;8.404;2022-08-03T01:39:23;2.53;;;2.17;;
69386;SDS011;56575;48.942;8.404;2022-08-03T01:41:52;3.67;;;2.50;;
69386;SDS011;56575;48.942;8.404;2022-08-03T01:44:28;3.80;;;2.53;;
69386;SDS011;56575;48.942;8.404;2022-08-03T01:46:58;5.50;;;2.23;;
69386;SDS011;56575;48.942;8.404;2022-08-03T01:49:38;3.55;;;2.60;;
69386;SDS011;56575;48.942;8.404;2022-08-03T01:52:07;3.42;;;2.53;;
69386;SDS011;56575;48.942;8.404;2022-08-03T01:54:47;4.25;;;2.28;;
69386;SDS011;56575;48.942;8.404;2022-08-03T01:57:15;3.15;;;2.30;;
69386;SDS011;56575;48.942;8.404;2022-08-03T01:59:43;3.97;;;2.67;;
69386;SDS011;56575;48.942;8.404;2022-08-03T02:02:13;3.55;;;2.20;;
69386;SDS011;56575;48.942;8.404;2022-08-03T02:04:41;3.35;;;2.40;;
69386;SDS011;56575;48.942;8.404;2022-08-03T02:07:08;4.10;;;2.42;;
69386;SDS011;56575;48.942;8.404;2022-08-03T02:09:35;4.07;;;2.45;;
69386;SDS011;56575;48.942;8.404;2022-08-03T02:12:06;3.20;;;2.40;;
69386;SDS011;56575;48.942;8.404;2022-08-03T02:14:33;4.78;;;2.42;;
69386;SDS011;56575;48.942;8.404;2022-08-03T02:17:00;3.17;;;2.47;;
69386;SDS011;56575;48.942;8.404;2022-08-03T02:19:26;3.15;;;2.33;;
69386;SDS011;56575;48.942;8.404;2022-08-03T02:21:52;6.23;;;2.60;;
69386;SDS011;56575;48.942;8.404;2022-08-03T02:24:20;3.03;;;2.20;;
69386;SDS011;56575;48.942;8.404;2022-08-03T02:26:46;4.70;;;2.20;;
69386;SDS011;56575;48.942;8.404;2022-08-03T02:29:17;4.00;;;2.38;;
69386;SDS011;56575;48.942;8.404;2022-08-03T02:31:45;3.28;;;2.30;;
69386;SDS011;56575;48.942;8.404;2022-08-03T02:34:16;4.32;;;2.40;;
69386;SDS011;56575;48.942;8.404;2022-08-03T02:36:45;3.67;;;2.60;;
69386;SDS011;56575;48.942;8.404;2022-08-03T02:39:15;3.37;;;2.50;;
69386;SDS011;56575;48.942;8.404;2022-08-03T02:41:48;3.53;;;2.20;;
69386;SDS011;56575;48.942;8.404;2022-08-03T02:44:16;5.15;;;2.70;;
69386;SDS011;56575;48.942;8.404;2022-08-03T02:46:45;4.10;;;2.50;;
69386;SDS011;56575;48.942;8.404;2022-08-03T02:49:14;3.50;;;2.55;;
69386;SDS011;56575;48.942;8.404;2022-08-03T02:51:42;3.10;;;2.50;;
69386;SDS011;56575;48.942;8.404;2022-08-03T02:54:11;3.85;;;2.70;;
69386;SDS011;56575;48.942;8.404;2022-08-03T02:56:41;3.75;;;2.78;;
69386;SDS011;56575;48.942;8.404;2022-08-03T02:59:08;4.50;;;2.97;;
69386;SDS011;56575;48.942;8.404;2022-08-03T03:01:35;4.82;;;2.80;;
69386;SDS011;56575;48.942;8.404;2022-08-03T03:04:03;3.73;;;2.60;;
69386;SDS011;56575;48.942;8.404;2022-08-03T03:06:32;4.53;;;2.55;;
69386;SDS011;56575;48.942;8.404;2022-08-03T03:08:59;3.78;;;2.90;;
69386;SDS011;56575;48.942;8.404;2022-08-03T03:11:25;3.50;;;2.63;;
69386;SDS011;56575;48.942;8.404;2022-08-03T03:13:52;3.72;;;2.60;;
69386;SDS011;56575;48.942;8.404;2022-08-03T03:16:24;3.40;;;2.50;;
69386;SDS011;56575;48.942;8.404;2022-08-03T03:18:51;3.92;;;2.83;;
69386;SDS011;56575;48.942;8.404;2022-08-03T03:21:21;3.10;;;2.35;;
69386;SDS011;56575;48.942;8.404;2022-08-03T03:23:48;6.25;;;2.50;;
69386;SDS011;56575;48.942;8.404;2022-08-03T03:26:15;4.95;;;2.80;;
69386;SDS011;56575;48.942;8.404;2022-08-03T03:28:41;5.40;;;2.60;;
69386;SDS011;56575;48.942;8.404;2022-08-03T03:31:09;4.20;;;2.97;;
69386;SDS011;56575;48.942;8.404;2022-08-03T03:33:36;3.88;;;2.80;;
69386;SDS011;56575;48.942;8.404;2022-08-03T03:36:05;3.92;;;3.00;;
69386;SDS011;56575;48.942;8.404;2022-08-03T03:38:42;4.23;;;2.77;;
69386;SDS011;56575;48.942;8.404;2022-08-03T03:41:09;3.50;;;2.83;;
69386;SDS011;56575;48.942;8.404;2022-08-03T03:43:40;3.17;;;2.50;;
69386;SDS011;56575;48.942;8.404;2022-08-03T03:46:12;3.55;;;2.72;;
69386;SDS011;56575;48.942;8.404;2022-08-03T03:48:40;3.90;;;2.90;;
69386;SDS011;56575;48.942;8.404;2022-08-03T03:51:06;6.10;;;2.90;;
69386;SDS011;56575;48.942;8.404;2022-08-03T03:53:32;3.72;;;2.70;;
69386;SDS011;56575;48.942;8.404;2022-08-03T03:56:00;3.50;;;2.53;;
69386;SDS011;56575;48.942;8.404;2022-08-03T03:58:28;5.18;;;3.10;;
69386;SDS011;56575;48.942;8.404;2022-08-03T04:00:55;5.93;;;3.05;;
69386;SDS011;56575;48.942;8.404;2022-08-03T04:03:23;5.78;;;2.88;;
69386;SDS011;56575;48.942;8.404;2022-08-03T04:05:49;4.87;;;3.20;;
69386;SDS011;56575;48.942;8.404;2022-08-03T04:08:45;5.10;;;2.80;;
69386;SDS011;56575;48.942;8.404;2022-08-03T04:14:03;4.50;;;2.88;;
69386;SDS011;56575;48.942;8.404;2022-08-03T04:16:37;3.63;;;2.60;;
69386;SDS011;56575;48.942;8.404;2022-08-03T04:19:09;3.97;;;2.63;;
69386;SDS011;56575;48.942;8.404;2022-08-03T04:21:39;3.25;;;2.50;;
69386;SDS011;56575;48.942;8.404;2022-08-03T04:24:07;5.07;;;2.75;;
69386;SDS011;56575;48.942;8.404;2022-08-03T04:26:35;4.10;;;2.95;;
69386;SDS011;56575;48.942;8.404;2022-08-03T04:29:04;3.47;;;2.60;;
69386;SDS011;56575;48.942;8.404;2022-08-03T04:31:31;4.38;;;2.90;;
69386;SDS011;56575;48.942;8.404;2022-08-03T04:33:56;6.43;;;2.92;;
69386;SDS011;56575;48.942;8.404;2022-08-03T04:36:25;3.92;;;2.72;;
69386;SDS011;56575;48.942;8.404;2022-08-03T04:39:13;4.17;;;2.77;;
69386;SDS011;56575;48.942;8.404;2022-08-03T04:41:55;4.05;;;2.67;;
69386;SDS011;56575;48.942;8.404;2022-08-03T04:44:26;5.47;;;2.80;;
69386;SDS011;56575;48.942;8.404;2022-08-03T04:46:53;4.20;;;2.78;;
69386;SDS011;56575;48.942;8.404;2022-08-03T04:49:19;8.05;;;2.92;;
69386;SDS011;56575;48.942;8.404;2022-08-03T04:51:46;3.93;;;2.70;;
69386;SDS011;56575;48.942;8.404;2022-08-03T04:54:13;5.30;;;2.70;;
69386;SDS011;56575;48.942;8.404;2022-08-03T04:56:40;3.45;;;2.65;;
69386;SDS011;56575;48.942;8.404;2022-08-03T04:59:06;5.18;;;2.75;;
69386;SDS011;56575;48.942;8.404;2022-08-03T05:01:32;3.60;;;2.45;;
69386;SDS011;56575;48.942;8.404;2022-08-03T05:03:58;4.03;;;2.80;;
69386;SDS011;56575;48.942;8.404;2022-08-03T05:06:24;3.67;;;2.35;;
69386;SDS011;56575;48.942;8.404;2022-08-03T05:08:49;9.77;;;2.30;;
69386;SDS011;56575;48.942;8.404;2022-08-03T05:11:15;4.87;;;2.60;;
69386;SDS011;56575;48.942;8.404;2022-08-03T05:13:41;4.05;;;2.67;;
69386;SDS011;56575;48.942;8.404;2022-08-03T05:16:07;4.28;;;2.80;;
69386;SDS011;56575;48.942;8.404;2022-08-03T05:18:36;5.22;;;2.85;;
69386;SDS011;56575;48.942;8.404;2022-08-03T05:21:02;4.10;;;2.80;;
69386;SDS011;56575;48.942;8.404;2022-08-03T05:23:29;5.43;;;2.50;;
69386;SDS011;56575;48.942;8.404;2022-08-03T05:25:55;4.38;;;2.60;;
69386;SDS011;56575;48.942;8.404;2022-08-03T05:28:23;3.40;;;2.53;;
69386;SDS011;56575;48.942;8.404;2022-08-03T05:30:49;4.97;;;2.90;;
69386;SDS011;56575;48.942;8.404;2022-08-03T05:33:14;4.60;;;2.80;;
69386;SDS011;56575;48.942;8.404;2022-08-03T05:35:40;5.43;;;2.77;;
69386;SDS011;56575;48.942;8.404;2022-08-03T05:38:05;5.55;;;2.95;;
69386;SDS011;56575;48.942;8.404;2022-08-03T05:40:31;4.67;;;2.90;;
69386;SDS011;56575;48.942;8.404;2022-08-03T05:42:56;4.07;;;3.00;;
69386;SDS011;56575;48.942;8.404;2022-08-03T05:45:22;4.70;;;3.10;;
69386;SDS011;56575;48.942;8.404;2022-08-03T05:47:48;4.93;;;3.28;;
69386;SDS011;56575;48.942;8.404;2022-08-03T05:50:15;6.03;;;3.10;;
69386;SDS011;56575;48.942;8.404;2022-08-03T05:52:42;4.97;;;3.00;;
69386;SDS011;56575;48.942;8.404;2022-08-03T05:55:08;6.78;;;3.22;;
69386;SDS011;56575;48.942;8.404;2022-08-03T05:57:35;4.87;;;2.90;;
69386;SDS011;56575;48.942;8.404;2022-08-03T06:00:06;5.13;;;2.88;;
69386;SDS011;56575;48.942;8.404;2022-08-03T06:02:33;4.38;;;2.90;;
69386;SDS011;56575;48.942;8.404;2022-08-03T06:04:59;3.47;;;2.53;;
69386;SDS011;56575;48.942;8.404;2022-08-03T06:07:24;5.87;;;3.23;;
69386;SDS011;56575;48.942;8.404;2022-08-03T06:09:50;4.90;;;3.15;;
69386;SDS011;56575;48.942;8.404;2022-08-03T06:12:15;4.37;;;3.00;;
69386;SDS011;56575;48.942;8.404;2022-08-03T06:14:41;4.43;;;3.03;;
69386;SDS011;56575;48.942;8.404;2022-08-03T06:17:06;6.13;;;3.10;;
69386;SDS011;56575;48.942;8.404;2022-08-03T06:19:32;5.68;;;3.13;;
69386;SDS011;56575;48.942;8.404;2022-08-03T06:21:57;4.30;;;3.20;;
69386;SDS011;56575;48.942;8.404;2022-08-03T06:24:23;4.33;;;3.00;;
69386;SDS011;56575;48.942;8.404;2022-08-03T06:26:48;5.65;;;2.75;;
69386;SDS011;56575;48.942;8.404;2022-08-03T06:29:14;4.33;;;2.63;;
69386;SDS011;56575;48.942;8.404;2022-08-03T06:31:39;6.60;;;3.20;;
69386;SDS011;56575;48.942;8.404;2022-08-03T06:34:04;5.20;;;3.20;;
69386;SDS011;56575;48.942;8.404;2022-08-03T06:36:30;7.77;;;3.03;;
69386;SDS011;56575;48.942;8.404;2022-08-03T06:38:59;5.23;;;3.00;;
69386;SDS011;56575;48.942;8.404;2022-08-03T06:41:26;5.13;;;3.07;;
69386;SDS011;56575;48.942;8.404;2022-08-03T06:43:52;4.40;;;3.05;;
69386;SDS011;56575;48.942;8.404;2022-08-03T06:46:18;4.90;;;2.80;;
69386;SDS011;56575;48.942;8.404;2022-08-03T06:48:43;5.65;;;2.85;;
69386;SDS011;56575;48.942;8.404;2022-08-03T06:51:09;4.13;;;2.93;;
69386;SDS011;56575;48.942;8.404;2022-08-03T06:53:34;5.17;;;2.93;;
69386;SDS011;56575;48.942;8.404;2022-08-03T06:56:00;5.00;;;2.92;;
69386;SDS011;56575;48.942;8.404;2022-08-03T06:58:25;3.33;;;2.70;;
69386;SDS011;56575;48.942;8.404;2022-08-03T07:00:51;5.13;;;2.80;;
69386;SDS011;56575;48.942;8.404;2022-08-03T07:03:17;5.25;;;2.80;;
69386;SDS011;56575;48.942;8.404;2022-08-03T07:05:42;4.90;;;2.70;;
69386;SDS011;56575;48.942;8.404;2022-08-03T07:08:10;4.88;;;2.80;;
69386;SDS011;56575;48.942;8.404;2022-08-03T07:10:36;6.83;;;2.90;;
69386;SDS011;56575;48.942;8.404;2022-08-03T07:13:03;3.88;;;2.80;;
69386;SDS011;56575;48.942;8.404;2022-08-03T07:15:30;11.30;;;2.80;;
69386;SDS011;56575;48.942;8.404;2022-08-03T07:17:56;4.43;;;3.00;;
69386;SDS011;56575;48.942;8.404;2022-08-03T07:20:21;4.27;;;2.80;;
69386;SDS011;56575;48.942;8.404;2022-08-03T07:22:47;4.05;;;2.70;;
69386;SDS011;56575;48.942;8.404;2022-08-03T07:25:13;6.60;;;3.10;;
69386;SDS011;56575;48.942;8.404;2022-08-03T07:27:42;4.75;;;2.65;;
69386;SDS011;56575;48.942;8.404;2022-08-03T07:30:10;7.93;;;2.83;;
69386;SDS011;56575;48.942;8.404;2022-08-03T07:32:37;4.00;;;2.60;;
69386;SDS011;56575;48.942;8.404;2022-08-03T07:35:03;7.18;;;3.00;;
69386;SDS011;56575;48.942;8.404;2022-08-03T07:37:30;5.78;;;2.70;;
69386;SDS011;56575;48.942;8.404;2022-08-03T07:39:56;4.80;;;2.90;;
69386;SDS011;56575;48.942;8.404;2022-08-03T07:42:22;6.22;;;3.03;;
69386;SDS011;56575;48.942;8.404;2022-08-03T07:44:48;3.90;;;2.70;;
69386;SDS011;56575;48.942;8.404;2022-08-03T07:47:23;3.75;;;2.90;;
69386;SDS011;56575;48.942;8.404;2022-08-03T07:49:53;4.67;;;2.70;;
69386;SDS011;56575;48.942;8.404;2022-08-03T07:52:19;4.13;;;2.67;;
69386;SDS011;56575;48.942;8.404;2022-08-03T07:55:07;5.25;;;2.70;;
69386;SDS011;56575;48.942;8.404;2022-08-03T07:57:33;4.13;;;2.88;;
69386;SDS011;56575;48.942;8.404;2022-08-03T07:59:59;4.95;;;3.08;;
69386;SDS011;56575;48.942;8.404;2022-08-03T08:02:24;5.03;;;2.80;;
69386;SDS011;56575;48.942;8.404;2022-08-03T08:04:50;3.30;;;2.73;;
69386;SDS011;56575;48.942;8.404;2022-08-03T08:07:15;5.00;;;2.92;;
69386;SDS011;56575;48.942;8.404;2022-08-03T08:09:41;4.53;;;2.87;;
69386;SDS011;56575;48.942;8.404;2022-08-03T08:12:06;4.03;;;2.70;;
69386;SDS011;56575;48.942;8.404;2022-08-03T08:14:33;4.00;;;2.83;;
69386;SDS011;56575;48.942;8.404;2022-08-03T08:16:59;6.00;;;2.78;;
69386;SDS011;56575;48.942;8.404;2022-08-03T08:19:25;5.60;;;3.00;;
69386;SDS011;56575;48.942;8.404;2022-08-03T08:21:51;5.57;;;2.87;;
69386;SDS011;56575;48.942;8.404;2022-08-03T08:24:16;5.13;;;3.15;;
69386;SDS011;56575;48.942;8.404;2022-08-03T08:26:42;4.43;;;2.60;;
69386;SDS011;56575;48.942;8.404;2022-08-03T08:29:07;4.23;;;2.73;;
69386;SDS011;56575;48.942;8.404;2022-08-03T08:31:34;4.90;;;2.95;;
69386;SDS011;56575;48.942;8.404;2022-08-03T08:33:59;4.67;;;3.20;;
69386;SDS011;56575;48.942;8.404;2022-08-03T08:36:29;5.05;;;2.72;;
69386;SDS011;56575;48.942;8.404;2022-08-03T08:38:56;3.30;;;2.40;;
69386;SDS011;56575;48.942;8.404;2022-08-03T08:41:21;4.80;;;2.83;;
69386;SDS011;56575;48.942;8.404;2022-08-03T08:43:47;4.70;;;2.90;;
69386;SDS011;56575;48.942;8.404;2022-08-03T08:46:12;4.47;;;2.70;;
69386;SDS011;56575;48.942;8.404;2022-08-03T08:48:39;4.17;;;2.60;;
69386;SDS011;56575;48.942;8.404;2022-08-03T08:51:07;4.97;;;2.97;;
69386;SDS011;56575;48.942;8.404;2022-08-03T08:53:36;4.22;;;2.95;;
69386;SDS011;56575;48.942;8.404;2022-08-03T08:56:02;3.17;;;2.53;;
69386;SDS011;56575;48.942;8.404;2022-08-03T08:58:29;4.30;;;3.00;;
69386;SDS011;56575;48.942;8.404;2022-08-03T09:01:00;6.80;;;3.20;;
69386;SDS011;56575;48.942;8.404;2022-08-03T09:03:26;5.13;;;2.65;;
69386;SDS011;56575;48.942;8.404;2022-08-03T09:05:51;5.20;;;2.90;;
69386;SDS011;56575;48.942;8.404;2022-08-03T09:08:17;7.40;;;3.27;;
69386;SDS011;56575;48.942;8.404;2022-08-03T09:10:42;4.57;;;2.87;;
69386;SDS011;56575;48.942;8.404;2022-08-03T09:13:08;5.80;;;2.50;;
69386;SDS011;56575;48.942;8.404;2022-08-03T09:15:33;3.97;;;2.73;;
69386;SDS011;56575;48.942;8.404;2022-08-03T09:18:00;3.60;;;2.50;;
69386;SDS011;56575;48.942;8.404;2022-08-03T09:20:27;4.72;;;2.42;;
69386;SDS011;56575;48.942;8.404;2022-08-03T09:22:59;4.72;;;2.60;;
69386;SDS011;56575;48.942;8.404;2022-08-03T09:25:33;3.90;;;2.50;;
69386;SDS011;56575;48.942;8.404;2022-08-03T09:28:09;3.00;;;2.47;;
69386;SDS011;56575;48.942;8.404;2022-08-03T09:30:40;4.35;;;2.28;;
69386;SDS011;56575;48.942;8.404;2022-08-03T09:33:07;3.05;;;2.20;;
69386;SDS011;56575;48.942;8.404;2022-08-03T09:35:47;4.95;;;2.60;;
69386;SDS011;56575;48.942;8.404;2022-08-03T09:38:20;4.65;;;2.50;;
69386;SDS011;56575;48.942;8.404;2022-08-03T09:40:51;4.50;;;2.40;;
69386;SDS011;56575;48.942;8.404;2022-08-03T09:43:17;3.72;;;2.38;;
69386;SDS011;56575;48.942;8.404;2022-08-03T09:45:43;2.90;;;2.17;;
69386;SDS011;56575;48.942;8.404;2022-08-03T09:48:22;3.37;;;2.57;;
69386;SDS011;56575;48.942;8.404;2022-08-03T09:50:52;3.05;;;2.20;;
69386;SDS011;56575;48.942;8.404;2022-08-03T09:53:19;2.80;;;2.30;;
69386;SDS011;56575;48.942;8.404;2022-08-03T09:55:55;3.47;;;2.08;;
69386;SDS011;56575;48.942;8.404;2022-08-03T09:58:22;3.97;;;1.90;;
69386;SDS011;56575;48.942;8.404;2022-08-03T10:00:59;5.43;;;2.60;;
69386;SDS011;56575;48.942;8.404;2022-08-03T10:03:28;2.70;;;2.05;;
69386;SDS011;56575;48.942;8.404;2022-08-03T10:05:57;2.78;;;2.28;;
69386;SDS011;56575;48.942;8.404;2022-08-03T10:08:23;2.40;;;2.00;;
69386;SDS011;56575;48.942;8.404;2022-08-03T10:10:50;3.30;;;2.10;;
69386;SDS011;56575;48.942;8.404;2022-08-03T10:13:20;4.72;;;2.15;;
69386;SDS011;56575;48.942;8.404;2022-08-03T10:15:46;4.78;;;2.50;;
69386;SDS011;56575;48.942;8.404;2022-08-03T10:18:12;3.57;;;2.23;;
69386;SDS011;56575;48.942;8.404;2022-08-03T10:20:54;4.30;;;2.30;;
69386;SDS011;56575;48.942;8.404;2022-08-03T10:23:28;3.75;;;2.10;;
69386;SDS011;56575;48.942;8.404;2022-08-03T10:25:59;2.90;;;2.37;;
69386;SDS011;56575;48.942;8.404;2022-08-03T10:28:27;3.90;;;2.60;;
69386;SDS011;56575;48.942;8.404;2022-08-03T10:30:59;6.03;;;2.42;;
69386;SDS011;56575;48.942;8.404;2022-08-03T10:33:29;3.13;;;2.55;;
69386;SDS011;56575;48.942;8.404;2022-08-03T10:35:58;6.05;;;2.33;;
69386;SDS011;56575;48.942;8.404;2022-08-03T10:38:28;3.53;;;2.30;;
69386;SDS011;56575;48.942;8.404;2022-08-03T10:40:59;5.00;;;2.50;;
69386;SDS011;56575;48.942;8.404;2022-08-03T10:43:46;5.03;;;2.70;;
69386;SDS011;56575;48.942;8.404;2022-08-03T10:46:13;3.88;;;2.22;;
69386;SDS011;56575;48.942;8.404;2022-08-03T10:48:41;3.97;;;2.47;;
69386;SDS011;56575;48.942;8.404;2022-08-03T10:51:07;5.17;;;2.80;;
69386;SDS011;56575;48.942;8.404;2022-08-03T10:53:33;4.57;;;3.05;;
69386;SDS011;56575;48.942;8.404;2022-08-03T10:56:03;3.92;;;2.90;;
69386;SDS011;56575;48.942;8.404;2022-08-03T10:58:48;6.03;;;3.08;;
69386;SDS011;56575;48.942;8.404;2022-08-03T11:01:15;4.27;;;3.10;;
69386;SDS011;56575;48.942;8.404;2022-08-03T11:06:19;4.63;;;2.60;;
69386;SDS011;56575;48.942;8.404;2022-08-03T11:08:46;5.32;;;2.70;;
69386;SDS011;56575;48.942;8.404;2022-08-03T11:14:01;3.20;;;2.87;;
69386;SDS011;56575;48.942;8.404;2022-08-03T11:16:32;3.38;;;2.50;;
69386;SDS011;56575;48.942;8.404;2022-08-03T11:19:08;2.90;;;2.60;;
69386;SDS011;56575;48.942;8.404;2022-08-03T11:27:20;2.92;;;2.40;;
69386;SDS011;56575;48.942;8.404;2022-08-03T11:35:09;3.17;;;2.45;;
69386;SDS011;56575;48.942;8.404;2022-08-03T11:40:37;3.42;;;2.50;;
69386;SDS011;56575;48.942;8.404;2022-08-03T11:45:59;3.87;;;2.80;;
69386;SDS011;56575;48.942;8.404;2022-08-03T11:48:33;4.68;;;2.40;;
69386;SDS011;56575;48.942;8.404;2022-08-03T11:50:59;4.57;;;2.30;;
69386;SDS011;56575;48.942;8.404;2022-08-03T11:53:26;3.45;;;2.30;;
69386;SDS011;56575;48.942;8.404;2022-08-03T11:55:51;3.80;;;2.50;;
69386;SDS011;56575;48.942;8.404;2022-08-03T11:58:21;6.43;;;2.50;;
69386;SDS011;56575;48.942;8.404;2022-08-03T12:00:48;3.67;;;2.50;;
69386;SDS011;56575;48.942;8.404;2022-08-03T12:03:15;4.10;;;2.45;;
69386;SDS011;56575;48.942;8.404;2022-08-03T12:05:43;4.50;;;2.40;;
69386;SDS011;56575;48.942;8.404;2022-08-03T12:08:14;4.22;;;2.42;;
69386;SDS011;56575;48.942;8.404;2022-08-03T12:10:46;4.00;;;2.45;;
69386;SDS011;56575;48.942;8.404;2022-08-03T12:13:16;4.43;;;2.30;;
69386;SDS011;56575;48.942;8.404;2022-08-03T12:15:56;3.95;;;2.35;;
69386;SDS011;56575;48.942;8.404;2022-08-03T12:18:23;2.67;;;2.30;;
69386;SDS011;56575;48.942;8.404;2022-08-03T12:20:49;3.10;;;2.40;;
69386;SDS011;56575;48.942;8.404;2022-08-03T12:23:27;3.27;;;2.10;;
69386;SDS011;56575;48.942;8.404;2022-08-03T12:25:53;3.17;;;2.30;;
69386;SDS011;56575;48.942;8.404;2022-08-03T12:28:26;3.35;;;2.60;;
69386;SDS011;56575;48.942;8.404;2022-08-03T12:30:52;2.93;;;2.40;;
69386;SDS011;56575;48.942;8.404;2022-08-03T12:35:44;4.95;;;2.42;;
69386;SDS011;56575;48.942;8.404;2022-08-03T12:38:11;2.97;;;2.60;;
69386;SDS011;56575;48.942;8.404;2022-08-03T12:40:39;5.57;;;2.53;;
69386;SDS011;56575;48.942;8.404;2022-08-03T12:43:11;2.83;;;2.00;;
69386;SDS011;56575;48.942;8.404;2022-08-03T12:45:37;4.40;;;2.30;;
69386;SDS011;56575;48.942;8.404;2022-08-03T12:48:03;3.30;;;2.27;;
69386;SDS011;56575;48.942;8.404;2022-08-03T12:50:34;3.72;;;2.20;;
69386;SDS011;56575;48.942;8.404;2022-08-03T12:53:02;5.53;;;2.72;;
69386;SDS011;56575;48.942;8.404;2022-08-03T12:55:29;2.75;;;2.25;;
69386;SDS011;56575;48.942;8.404;2022-08-03T12:57:59;3.42;;;2.38;;
69386;SDS011;56575;48.942;8.404;2022-08-03T13:00:28;4.27;;;2.30;;
69386;SDS011;56575;48.942;8.404;2022-08-03T13:03:05;3.97;;;2.30;;
69386;SDS011;56575;48.942;8.404;2022-08-03T13:05:40;3.33;;;2.42;;
69386;SDS011;56575;48.942;8.404;2022-08-03T13:08:16;3.20;;;2.33;;
69386;SDS011;56575;48.942;8.404;2022-08-03T13:10:43;2.60;;;2.40;;
69386;SDS011;56575;48.942;8.404;2022-08-03T13:13:09;3.67;;;2.30;;
69386;SDS011;56575;48.942;8.404;2022-08-03T13:15:35;3.45;;;2.17;;
69386;SDS011;56575;48.942;8.404;2022-08-03T13:18:00;3.00;;;2.43;;
69386;SDS011;56575;48.942;8.404;2022-08-03T13:20:26;2.60;;;2.13;;
69386;SDS011;56575;48.942;8.404;2022-08-03T13:22:51;2.80;;;2.47;;
69386;SDS011;56575;48.942;8.404;2022-08-03T13:25:16;2.40;;;2.20;;
69386;SDS011;56575;48.942;8.404;2022-08-03T13:27:42;3.27;;;2.00;;
69386;SDS011;56575;48.942;8.404;2022-08-03T13:30:08;2.77;;;2.10;;
69386;SDS011;56575;48.942;8.404;2022-08-03T13:32:34;3.78;;;2.50;;
69386;SDS011;56575;48.942;8.404;2022-08-03T13:35:00;2.50;;;2.30;;
69386;SDS011;56575;48.942;8.404;2022-08-03T13:37:27;2.57;;;2.10;;
69386;SDS011;56575;48.942;8.404;2022-08-03T13:39:53;2.97;;;2.33;;
69386;SDS011;56575;48.942;8.404;2022-08-03T13:42:18;3.13;;;2.20;;
69386;SDS011;56575;48.942;8.404;2022-08-03T13:44:44;2.47;;;2.28;;
69386;SDS011;56575;48.942;8.404;2022-08-03T13:47:10;7.17;;;2.47;;
69386;SDS011;56575;48.942;8.404;2022-08-03T13:49:38;3.47;;;2.35;;
69386;SDS011;56575;48.942;8.404;2022-08-03T13:52:06;2.97;;;2.50;;
69386;SDS011;56575;48.942;8.404;2022-08-03T13:54:31;2.65;;;2.35;;
69386;SDS011;56575;48.942;8.404;2022-08-03T13:56:57;3.03;;;2.40;;
69386;SDS011;56575;48.942;8.404;2022-08-03T13:59:24;4.22;;;2.10;;
69386;SDS011;56575;48.942;8.404;2022-08-03T14:01:50;3.50;;;2.20;;
69386;SDS011;56575;48.942;8.404;2022-08-03T14:04:17;4.85;;;2.50;;
69386;SDS011;56575;48.942;8.404;2022-08-03T14:06:43;3.00;;;2.10;;
69386;SDS011;56575;48.942;8.404;2022-08-03T14:09:09;3.33;;;2.30;;
69386;SDS011;56575;48.942;8.404;2022-08-03T14:11:42;4.60;;;2.22;;
69386;SDS011;56575;48.942;8.404;2022-08-03T14:14:08;4.85;;;2.20;;
69386;SDS011;56575;48.942;8.404;2022-08-03T14:16:34;3.53;;;2.20;;
69386;SDS011;56575;48.942;8.404;2022-08-03T14:19:01;6.22;;;2.63;;
69386;SDS011;56575;48.942;8.404;2022-08-03T14:21:40;2.67;;;2.08;;
69386;SDS011;56575;48.942;8.404;2022-08-03T14:24:09;3.17;;;2.22;;
69386;SDS011;56575;48.942;8.404;2022-08-03T14:26:34;3.70;;;2.40;;
69386;SDS011;56575;48.942;8.404;2022-08-03T14:29:00;3.03;;;2.30;;
69386;SDS011;56575;48.942;8.404;2022-08-03T14:31:25;3.75;;;2.15;;
69386;SDS011;56575;48.942;8.404;2022-08-03T14:33:50;6.20;;;2.17;;
69386;SDS011;56575;48.942;8.404;2022-08-03T14:36:16;4.90;;;2.27;;
69386;SDS011;56575;48.942;8.404;2022-08-03T14:38:41;4.83;;;2.23;;
69386;SDS011;56575;48.942;8.404;2022-08-03T14:41:07;3.72;;;2.00;;
69386;SDS011;56575;48.942;8.404;2022-08-03T14:43:32;3.80;;;2.30;;
69386;SDS011;56575;48.942;8.404;2022-08-03T14:46:08;2.60;;;2.35;;
69386;SDS011;56575;48.942;8.404;2022-08-03T14:48:39;3.93;;;2.30;;
69386;SDS011;56575;48.942;8.404;2022-08-03T14:51:05;5.95;;;2.60;;
69386;SDS011;56575;48.942;8.404;2022-08-03T14:53:33;5.27;;;2.60;;
69386;SDS011;56575;48.942;8.404;2022-08-03T14:55:59;2.58;;;2.25;;
69386;SDS011;56575;48.942;8.404;2022-08-03T14:58:27;3.37;;;2.20;;
69386;SDS011;56575;48.942;8.404;2022-08-03T15:00:53;3.17;;;2.20;;
69386;SDS011;56575;48.942;8.404;2022-08-03T15:03:20;3.85;;;2.08;;
69386;SDS011;56575;48.942;8.404;2022-08-03T15:08:40;3.13;;;2.30;;
69386;SDS011;56575;48.942;8.404;2022-08-03T15:11:21;5.07;;;2.47;;
69386;SDS011;56575;48.942;8.404;2022-08-03T15:13:46;4.60;;;2.30;;
69386;SDS011;56575;48.942;8.404;2022-08-03T15:16:12;2.63;;;2.10;;
69386;SDS011;56575;48.942;8.404;2022-08-03T15:18:37;6.40;;;2.45;;
69386;SDS011;56575;48.942;8.404;2022-08-03T15:21:29;2.83;;;2.30;;
69386;SDS011;56575;48.942;8.404;2022-08-03T15:23:55;4.80;;;2.50;;
69386;SDS011;56575;48.942;8.404;2022-08-03T15:26:20;3.58;;;2.50;;
69386;SDS011;56575;48.942;8.404;2022-08-03T15:28:46;2.40;;;2.20;;
69386;SDS011;56575;48.942;8.404;2022-08-03T15:31:12;3.87;;;2.10;;
69386;SDS011;56575;48.942;8.404;2022-08-03T15:33:50;4.25;;;2.30;;
69386;SDS011;56575;48.942;8.404;2022-08-03T15:36:16;3.15;;;2.30;;
69386;SDS011;56575;48.942;8.404;2022-08-03T15:38:42;4.22;;;2.60;;
69386;SDS011;56575;48.942;8.404;2022-08-03T15:41:10;3.17;;;2.17;;